Terminal Aerodrome Forecast
Issued by NWS

Home | Current Version | Previous Version | Text Only | Print | Product List | Glossary On
Versions: 1 2 3 4 5 6 7 8 9 10 11 12 13 14 15 16 17 18 19 20 21 22 23
367
FTUS44 KLIX 022321
TAFGPT
TAF
KGPT 022321Z 0300/0324 20005KT P6SM FEW010 BKN110
     FM031000 32004KT P6SM BKN015
      TEMPO 0310/0314 OVC008
     FM031900 31006KT P6SM BKN025=

USA.gov is the U.S. government's official web portal to all federal, state and local government web resources and services.